Puerto Maldonado, Puerto Maldonado International Airport (SPTU)

NamePuerto Maldonado International Airport
CityPuerto Maldonado
CountryPeru
ICAOSPTU
IATAPEM
Altitude201 m
CoordinatesGoogle Map
Live Air TrafficLiveATC.net
METARSPTU 192300Z VRB02KT 9999 SCT035 BKN120 26/25 Q1006 RMK TCU N BIRD HAZARD RWY 01/19 PP000
2019-02-19 23:00:00 Wind: North (0°) 1.03 m/s - Visibility: > 10000 m - Temperature: 26 °C - Dew point: 25 °C - Humidity: 94.2% - Pressure: 1006 hPa
Statistics

The table below shows the detailed information of all flights to/from Puerto Maldonado, Puerto Maldonado International Airport (SPTU).